Time,TemperatureF,DewpointF,PressureIn,WindDirection,WindDirectionDegrees,WindSpeedMPH,WindSpeedGustMPH,Humidity,HourlyPrecipIn,Conditions,Clouds,dailyrainin,SoftwareType,DateUTC
2013-03-19 00:01:00,28.0,18.0,-100.00,West,272,7.0,9.0,66,0.00,,,-99.99,,2013-03-19 06:01:00,
2013-03-19 00:11:00,27.0,18.0,-100.00,West,281,7.0,9.0,67,0.00,,,-99.99,,2013-03-19 06:11:00,
2013-03-19 00:21:00,26.0,18.0,-100.00,WNW,287,8.0,9.0,71,0.00,,,-99.99,,2013-03-19 06:21:00,
2013-03-19 00:31:00,26.0,18.0,-100.00,West,278,9.0,10.0,72,0.00,,,-99.99,,2013-03-19 06:31:00,
2013-03-19 00:42:00,26.0,18.0,-100.00,West,271,7.0,9.0,72,0.00,,,-99.99,,2013-03-19 06:42:00,
2013-03-19 00:52:00,26.0,18.0,-100.00,West,267,7.0,9.0,74,0.00,,,-99.99,,2013-03-19 06:52:00,
2013-03-19 01:01:00,26.0,18.0,-100.00,WNW,289,8.0,11.0,73,0.00,,,-99.99,,2013-03-19 07:01:00,
2013-03-19 01:11:00,27.0,18.0,-100.00,WNW,298,9.0,11.0,71,0.00,,,-99.99,,2013-03-19 07:11:00,
2013-03-19 01:21:00,27.0,19.0,-100.00,WNW,299,8.0,10.0,70,0.00,,,-99.99,,2013-03-19 07:21:00,
2013-03-19 01:32:00,27.0,18.0,-100.00,WNW,299,8.0,10.0,69,0.00,,,-99.99,,2013-03-19 07:32:00,
2013-03-19 01:41:00,26.0,18.0,-100.00,WNW,291,7.0,9.0,72,0.00,,,-99.99,,2013-03-19 07:41:00,
2013-03-19 01:52:00,26.0,18.0,-100.00,WNW,295,7.0,9.0,70,0.00,,,-99.99,,2013-03-19 07:52:00,
2013-03-19 02:02:00,25.0,18.0,-100.00,WNW,289,7.0,8.0,75,0.00,,,-99.99,,2013-03-19 08:02:00,
2013-03-19 02:11:00,25.0,18.0,-100.00,WNW,285,7.0,9.0,75,0.00,,,-99.99,,2013-03-19 08:11:00,
2013-03-19 02:21:00,25.0,18.0,-100.00,West,278,7.0,9.0,74,0.00,,,-99.99,,2013-03-19 08:21:00,
2013-03-19 02:31:00,25.0,18.0,-100.00,WNW,284,7.0,9.0,76,0.00,,,-99.99,,2013-03-19 08:31:00,
2013-03-19 02:41:00,25.0,19.0,-100.00,WNW,294,7.0,9.0,77,0.00,,,-99.99,,2013-03-19 08:41:00,
2013-03-19 02:51:00,25.0,19.0,-100.00,WNW,294,7.0,9.0,77,0.00,,,-99.99,,2013-03-19 08:51:00,
2013-03-19 03:01:00,25.0,19.0,-100.00,WNW,289,6.0,9.0,78,0.00,,,-99.99,,2013-03-19 09:01:00,
2013-03-19 03:11:00,25.0,19.0,-100.00,WNW,284,6.0,8.0,78,0.00,,,-99.99,,2013-03-19 09:11:00,
2013-03-19 03:32:00,26.0,20.0,-100.00,NW,308,6.0,9.0,76,0.00,,,-99.99,,2013-03-19 09:32:00,
2013-03-19 03:42:00,27.0,19.0,-100.00,NW,318,7.0,9.0,71,0.00,,,-99.99,,2013-03-19 09:42:00,
2013-03-19 03:52:00,26.0,18.0,-100.00,NW,309,6.0,7.0,72,0.00,,,-99.99,,2013-03-19 09:52:00,
2013-03-19 04:03:00,26.0,19.0,-100.00,WNW,292,5.0,6.0,74,0.00,,,-99.99,,2013-03-19 10:03:00,
2013-03-19 04:12:00,26.0,19.0,-100.00,West,281,5.0,7.0,76,0.00,,,-99.99,,2013-03-19 10:12:00,
2013-03-19 04:22:00,26.0,20.0,-100.00,WSW,253,6.0,7.0,78,0.00,,,-99.99,,2013-03-19 10:22:00,
2013-03-19 04:32:00,26.0,20.0,-100.00,West,265,6.0,7.0,77,0.00,,,-99.99,,2013-03-19 10:32:00,
2013-03-19 04:41:00,26.0,20.0,-100.00,West,272,5.0,6.0,77,0.00,,,-99.99,,2013-03-19 10:41:00,
2013-03-19 04:52:00,26.0,19.0,-100.00,WNW,288,4.0,6.0,76,0.00,,,-99.99,,2013-03-19 10:52:00,
2013-03-19 05:02:00,26.0,20.0,-100.00,WNW,289,4.0,6.0,77,0.00,,,-99.99,,2013-03-19 11:02:00,
2013-03-19 05:11:00,26.0,20.0,-100.00,West,280,4.0,6.0,77,0.00,,,-99.99,,2013-03-19 11:11:00,
2013-03-19 05:21:00,26.0,20.0,-100.00,West,265,4.0,6.0,79,0.00,,,-99.99,,2013-03-19 11:21:00,
2013-03-19 05:31:00,26.0,20.0,-100.00,WSW,258,6.0,6.0,79,0.00,,,-99.99,,2013-03-19 11:31:00,
2013-03-19 05:41:00,26.0,20.0,-100.00,West,271,5.0,7.0,78,0.00,,,-99.99,,2013-03-19 11:41:00,
2013-03-19 05:52:00,26.0,20.0,-100.00,NW,308,6.0,11.0,79,0.00,,,-99.99,,2013-03-19 11:52:00,
2013-03-19 06:02:00,26.0,22.0,-100.00,NW,319,9.0,14.0,83,0.00,,,-99.99,,2013-03-19 12:02:00,
2013-03-19 06:12:00,26.0,23.0,-100.00,NW,312,10.0,12.0,86,0.00,,,-99.99,,2013-03-19 12:12:00,
2013-03-19 06:21:00,26.0,22.0,-100.00,NNW,329,6.0,9.0,87,0.00,,,-99.99,,2013-03-19 12:21:00,
2013-03-19 06:32:00,25.0,22.0,-100.00,NNW,347,2.0,6.0,89,0.00,,,-99.99,,2013-03-19 12:32:00,
2013-03-19 06:42:00,25.0,22.0,-100.00,North,349,2.0,3.0,90,0.00,,,-99.99,,2013-03-19 12:42:00,
2013-03-19 06:51:00,25.0,23.0,-100.00,NW,318,2.0,4.0,92,0.00,,,-99.99,,2013-03-19 12:51:00,
2013-03-19 07:01:00,25.0,24.0,-100.00,NW,312,4.0,9.0,96,0.01,,,-99.99,,2013-03-19 13:01:00,
2013-03-19 07:11:00,25.0,24.0,-100.00,NW,306,6.0,9.0,97,0.01,,,-99.99,,2013-03-19 13:11:00,
2013-03-19 07:21:00,25.0,24.0,-100.00,NW,319,5.0,8.0,98,0.00,,,-99.99,,2013-03-19 13:21:00,
2013-03-19 07:31:00,24.0,24.0,-100.00,NW,313,4.0,7.0,98,0.01,,,-99.99,,2013-03-19 13:31:00,
2013-03-19 07:41:00,25.0,24.0,-100.00,NW,309,6.0,9.0,98,0.01,,,-99.99,,2013-03-19 13:41:00,
2013-03-19 07:52:00,25.0,24.0,-100.00,NW,309,9.0,12.0,98,0.01,,,-99.99,,2013-03-19 13:52:00,
2013-03-19 08:01:00,24.0,24.0,-100.00,WNW,301,9.0,12.0,98,0.03,,,-99.99,,2013-03-19 14:01:00,
2013-03-19 08:21:00,23.0,23.0,-100.00,WNW,296,7.0,9.0,98,0.03,,,-99.99,,2013-03-19 14:21:00,
2013-03-19 08:31:00,24.0,24.0,-100.00,WNW,291,7.0,9.0,98,0.00,,,-99.99,,2013-03-19 14:31:00,
2013-03-19 08:41:00,24.0,24.0,-100.00,WNW,294,7.0,11.0,98,0.00,,,-99.99,,2013-03-19 14:41:00,
2013-03-19 08:51:00,24.0,24.0,-100.00,WNW,299,9.0,11.0,97,0.00,,,-99.99,,2013-03-19 14:51:00,
2013-03-19 09:01:00,24.0,23.0,-100.00,NW,304,8.0,12.0,96,0.00,,,-99.99,,2013-03-19 15:01:00,
2013-03-19 09:11:00,24.0,24.0,-100.00,NW,305,9.0,12.0,98,0.06,,,-99.99,,2013-03-19 15:11:00,
2013-03-19 09:21:00,24.0,24.0,-100.00,NW,309,11.0,13.0,99,0.00,,,-99.99,,2013-03-19 15:21:00,
2013-03-19 09:33:00,24.0,23.0,-100.00,WNW,301,10.0,13.0,99,0.03,,,-99.99,,2013-03-19 15:33:00,
2013-03-19 09:42:00,23.0,23.0,-100.00,WNW,295,11.0,14.0,98,0.00,,,-99.99,,2013-03-19 15:42:00,
2013-03-19 09:52:00,23.0,23.0,-100.00,WNW,298,12.0,14.0,99,0.01,,,-99.99,,2013-03-19 15:52:00,
2013-03-19 10:03:00,23.0,22.0,-100.00,WNW,299,10.0,12.0,97,0.01,,,-99.99,,2013-03-19 16:03:00,
2013-03-19 10:12:00,22.0,22.0,-100.00,WNW,298,11.0,14.0,97,0.01,,,-99.99,,2013-03-19 16:12:00,
2013-03-19 10:23:00,22.0,21.0,-100.00,NW,304,11.0,14.0,97,0.03,,,-99.99,,2013-03-19 16:23:00,
2013-03-19 10:33:00,22.0,21.0,-100.00,WNW,301,11.0,13.0,96,0.00,,,-99.99,,2013-03-19 16:33:00,
2013-03-19 10:43:00,23.0,22.0,-100.00,NW,309,10.0,13.0,96,0.00,,,-99.99,,2013-03-19 16:43:00,
2013-03-19 10:53:00,24.0,23.0,-100.00,NW,311,10.0,13.0,96,0.00,,,-99.99,,2013-03-19 16:53:00,
2013-03-19 11:02:00,24.0,23.0,-100.00,NW,305,9.0,12.0,92,0.00,,,-99.99,,2013-03-19 17:02:00,
2013-03-19 11:13:00,25.0,23.0,-100.00,NW,306,10.0,14.0,94,0.00,,,-99.99,,2013-03-19 17:13:00,
2013-03-19 11:23:00,25.0,24.0,-100.00,NW,318,8.0,12.0,94,0.00,,,-99.99,,2013-03-19 17:23:00,
2013-03-19 11:34:00,25.0,22.0,-100.00,NW,322,8.0,12.0,91,0.00,,,-99.99,,2013-03-19 17:34:00,
2013-03-19 11:43:00,24.0,22.0,-100.00,NW,308,12.0,19.0,90,0.00,,,-99.99,,2013-03-19 17:43:00,
2013-03-19 11:52:00,25.0,23.0,-100.00,NW,315,14.0,19.0,91,0.00,,,-99.99,,2013-03-19 17:52:00,
2013-03-19 12:02:00,25.0,23.0,-100.00,NW,316,15.0,21.0,90,0.00,,,-99.99,,2013-03-19 18:02:00,
2013-03-19 12:12:00,25.0,23.0,-100.00,NW,320,14.0,18.0,91,0.00,,,-99.99,,2013-03-19 18:12:00,
2013-03-19 12:22:00,25.0,23.0,-100.00,NW,311,15.0,19.0,91,-99.99,,,-99.99,,2013-03-19 18:22:00,
2013-03-19 12:33:00,25.0,22.0,-100.00,NW,313,15.0,20.0,88,0.00,,,-99.99,,2013-03-19 18:33:00,
2013-03-19 12:41:00,25.0,22.0,-100.00,NW,313,15.0,21.0,89,0.00,,,-99.99,,2013-03-19 18:41:00,
2013-03-19 12:52:00,26.0,22.0,-100.00,NW,312,14.0,20.0,87,0.00,,,-99.99,,2013-03-19 18:52:00,
2013-03-19 13:01:00,24.0,20.0,-100.00,NW,308,13.0,18.0,83,0.00,,,-99.99,,2013-03-19 19:01:00,
2013-03-19 13:11:00,24.0,21.0,-100.00,NW,308,13.0,19.0,87,0.00,,,-99.99,,2013-03-19 19:11:00,
2013-03-19 13:21:00,25.0,22.0,-100.00,NW,308,12.0,17.0,87,0.00,,,-99.99,,2013-03-19 19:21:00,
2013-03-19 13:31:00,25.0,21.0,-100.00,WNW,301,10.0,15.0,85,0.00,,,-99.99,,2013-03-19 19:31:00,
2013-03-19 13:41:00,26.0,21.0,-100.00,WNW,292,9.0,14.0,80,0.00,,,-99.99,,2013-03-19 19:41:00,
2013-03-19 13:52:00,27.0,22.0,-100.00,WNW,292,11.0,16.0,82,0.00,,,-99.99,,2013-03-19 19:52:00,
2013-03-19 14:01:00,25.0,20.0,-100.00,West,274,10.0,15.0,81,0.00,,,-99.99,,2013-03-19 20:01:00,
2013-03-19 14:11:00,27.0,21.0,-100.00,West,278,6.0,9.0,79,0.00,,,-99.99,,2013-03-19 20:11:00,
2013-03-19 14:22:00,27.0,21.0,-100.00,WNW,302,6.0,12.0,78,0.00,,,-99.99,,2013-03-19 20:22:00,
2013-03-19 14:31:00,28.0,22.0,-100.00,WNW,295,6.0,13.0,77,0.00,,,-99.99,,2013-03-19 20:31:00,
2013-03-19 14:42:00,27.0,21.0,-100.00,WNW,282,6.0,10.0,77,0.00,,,-99.99,,2013-03-19 20:42:00,
2013-03-19 14:52:00,28.0,23.0,-100.00,WNW,285,6.0,9.0,80,0.00,,,-99.99,,2013-03-19 20:52:00,
2013-03-19 15:01:00,27.0,21.0,-100.00,WSW,258,6.0,9.0,79,0.00,,,-99.99,,2013-03-19 21:01:00,
2013-03-19 15:11:00,27.0,21.0,-100.00,West,264,6.0,10.0,79,0.00,,,-99.99,,2013-03-19 21:11:00,
2013-03-19 15:22:00,27.0,19.0,-100.00,WSW,239,4.0,7.0,71,0.00,,,-99.99,,2013-03-19 21:22:00,
2013-03-19 15:32:00,29.0,21.0,-100.00,West,271,8.0,12.0,72,0.00,,,-99.99,,2013-03-19 21:32:00,
2013-03-19 15:42:00,29.0,20.0,-100.00,West,267,11.0,17.0,67,0.00,,,-99.99,,2013-03-19 21:42:00,
2013-03-19 15:52:00,30.0,20.0,-100.00,WNW,287,10.0,15.0,66,0.00,,,-99.99,,2013-03-19 21:52:00,
2013-03-19 16:02:00,29.0,19.0,-100.00,WNW,295,10.0,14.0,67,0.00,,,-99.99,,2013-03-19 22:02:00,
2013-03-19 16:12:00,29.0,19.0,-100.00,West,277,8.0,12.0,67,0.00,,,-99.99,,2013-03-19 22:12:00,
2013-03-19 16:22:00,29.0,20.0,-100.00,WNW,289,6.0,11.0,67,0.00,,,-99.99,,2013-03-19 22:22:00,
2013-03-19 16:32:00,30.0,18.0,-100.00,WNW,296,7.0,12.0,62,0.00,,,-99.99,,2013-03-19 22:32:00,
2013-03-19 16:42:00,30.0,19.0,-100.00,NW,308,9.0,17.0,62,-99.99,,,-99.99,,2013-03-19 22:42:00,
2013-03-19 16:52:00,30.0,18.0,-100.00,NW,319,9.0,16.0,59,0.00,,,-99.99,,2013-03-19 22:52:00,
2013-03-19 17:02:00,30.0,17.0,-100.00,NW,313,8.0,14.0,59,0.00,,,-99.99,,2013-03-19 23:02:00,
2013-03-19 17:11:00,30.0,17.0,-100.00,NW,316,8.0,14.0,58,0.00,,,-99.99,,2013-03-19 23:11:00,
2013-03-19 17:21:00,30.0,17.0,-100.00,NW,325,8.0,14.0,58,0.00,,,-99.99,,2013-03-19 23:21:00,
2013-03-19 17:31:00,29.0,16.0,-100.00,NW,311,7.0,12.0,56,0.00,,,-99.99,,2013-03-19 23:31:00,
2013-03-19 17:42:00,30.0,16.0,-100.00,WNW,298,7.0,12.0,56,0.00,,,-99.99,,2013-03-19 23:42:00,
2013-03-19 17:51:00,30.0,17.0,-100.00,NNW,339,6.0,10.0,58,0.00,,,-99.99,,2013-03-19 23:51:00,
2013-03-19 18:01:00,30.0,16.0,-100.00,NNW,340,6.0,10.0,57,0.00,,,-99.99,,2013-03-20 00:01:00,
2013-03-19 18:11:00,30.0,16.0,-100.00,North,354,4.0,10.0,57,0.00,,,-99.99,,2013-03-20 00:11:00,
2013-03-19 18:21:00,30.0,16.0,-100.00,North,350,4.0,9.0,56,0.00,,,-99.99,,2013-03-20 00:21:00,
2013-03-19 18:32:00,29.0,16.0,-100.00,North,6,4.0,6.0,56,0.00,,,-99.99,,2013-03-20 00:32:00,
2013-03-19 18:42:00,29.0,18.0,-100.00,North,353,4.0,7.0,61,0.00,,,-99.99,,2013-03-20 00:42:00,
2013-03-19 18:52:00,29.0,17.0,-100.00,North,360,5.0,9.0,61,0.00,,,-99.99,,2013-03-20 00:52:00,
2013-03-19 19:01:00,28.0,18.0,-100.00,North,6,4.0,8.0,67,0.00,,,-99.99,,2013-03-20 01:01:00,
2013-03-19 19:11:00,27.0,18.0,-100.00,NE,35,6.0,8.0,69,0.00,,,-99.99,,2013-03-20 01:11:00,
2013-03-19 19:21:00,26.0,18.0,-100.00,NE,37,6.0,7.0,72,0.00,,,-99.99,,2013-03-20 01:21:00,
2013-03-19 19:32:00,26.0,17.0,-100.00,NE,38,6.0,7.0,71,0.00,,,-99.99,,2013-03-20 01:32:00,
2013-03-19 19:42:00,25.0,18.0,-100.00,NE,45,6.0,7.0,74,0.00,,,-99.99,,2013-03-20 01:42:00,
2013-03-19 19:52:00,25.0,17.0,-100.00,NE,37,5.0,7.0,73,0.00,,,-99.99,,2013-03-20 01:52:00,
2013-03-19 20:01:00,25.0,17.0,-100.00,NE,38,1.0,4.0,71,0.00,,,-99.99,,2013-03-20 02:01:00,
2013-03-19 20:21:00,25.0,17.0,-100.00,SE,138,2.0,3.0,70,0.00,,,-99.99,,2013-03-20 02:21:00,
2013-03-19 20:31:00,25.0,16.0,-100.00,ESE,120,3.0,4.0,68,0.00,,,-99.99,,2013-03-20 02:31:00,
2013-03-19 20:52:00,24.0,17.0,-100.00,ESE,109,5.0,6.0,74,0.00,,,-99.99,,2013-03-20 02:52:00,
2013-03-19 21:01:00,23.0,17.0,-100.00,SE,124,5.0,6.0,78,0.00,,,-99.99,,2013-03-20 03:01:00,
2013-03-19 21:11:00,22.0,17.0,-100.00,SE,137,6.0,9.0,80,0.00,,,-99.99,,2013-03-20 03:11:00,
2013-03-19 21:21:00,22.0,17.0,-100.00,SE,141,8.0,12.0,82,0.00,,,-99.99,,2013-03-20 03:21:00,
2013-03-19 21:32:00,22.0,17.0,-100.00,SE,133,9.0,14.0,82,0.00,,,-99.99,,2013-03-20 03:32:00,
2013-03-19 21:42:00,21.0,17.0,-100.00,SE,137,11.0,14.0,85,0.00,,,-99.99,,2013-03-20 03:42:00,
2013-03-19 21:52:00,22.0,17.0,-100.00,SE,133,11.0,14.0,81,0.00,,,-99.99,,2013-03-20 03:52:00,
2013-03-19 22:02:00,22.0,17.0,-100.00,SE,126,13.0,17.0,79,0.00,,,-99.99,,2013-03-20 04:02:00,
2013-03-19 22:12:00,22.0,17.0,-100.00,SE,127,11.0,13.0,79,0.00,,,-99.99,,2013-03-20 04:12:00,
2013-03-19 22:22:00,22.0,16.0,-100.00,SE,128,11.0,13.0,79,0.00,,,-99.99,,2013-03-20 04:22:00,
2013-03-19 22:32:00,21.0,16.0,-100.00,SE,133,11.0,14.0,79,0.00,,,-99.99,,2013-03-20 04:32:00,
2013-03-19 22:42:00,20.0,16.0,-100.00,SE,133,11.0,14.0,81,0.00,,,-99.99,,2013-03-20 04:42:00,
2013-03-19 22:53:00,-999.0,-99.9,-100.00,SE,133,11.0,15.0,-999,-99.99,,,-99.99,,2013-03-20 04:53:00,
2013-03-19 23:02:00,22.0,15.0,-100.00,ESE,120,12.0,16.0,76,0.00,,,-99.99,,2013-03-20 05:02:00,
2013-03-19 23:12:00,22.0,16.0,-100.00,ESE,114,13.0,18.0,76,0.00,,,-99.99,,2013-03-20 05:12:00,
2013-03-19 23:22:00,22.0,15.0,-100.00,ESE,116,12.0,16.0,76,0.00,,,-99.99,,2013-03-20 05:22:00,
2013-03-19 23:31:00,20.0,15.0,-100.00,SE,127,12.0,16.0,80,0.00,,,-99.99,,2013-03-20 05:31:00,
2013-03-19 23:52:00,20.0,15.0,-100.00,SE,138,12.0,14.0,83,0.00,,,-99.99,,2013-03-20 05:52:00,